createdAt,value
2022-11-08T00:02:05.484Z,31.48
2022-11-08T00:04:32.253Z,29.55
2022-11-08T00:07:17.444Z,30.75
2022-11-08T00:10:02.721Z,31.33
2022-11-08T00:12:47.589Z,31.35
2022-11-08T00:15:14.122Z,31.55
2022-11-08T00:17:40.676Z,29.80
2022-11-08T00:20:08.892Z,30.67
2022-11-08T00:22:35.433Z,31.52
2022-11-08T00:25:01.986Z,30.90
2022-11-08T00:27:28.475Z,30.65
2022-11-08T00:29:55.041Z,30.00
2022-11-08T00:32:24.280Z,30.75
2022-11-08T00:34:52.945Z,31.25
2022-11-08T00:37:20.952Z,31.08
2022-11-08T00:39:48.124Z,31.52
2022-11-08T00:42:15.074Z,31.60
2022-11-08T00:44:41.724Z,31.23
2022-11-08T00:47:08.239Z,31.95
2022-11-08T00:49:35.022Z,30.90
2022-11-08T00:52:01.659Z,33.35
2022-11-08T00:54:28.203Z,32.58
2022-11-08T00:56:54.709Z,32.22
2022-11-08T00:59:21.276Z,32.05
2022-11-08T01:01:48.437Z,33.05
2022-11-08T01:04:18.593Z,33.03
2022-11-08T01:06:45.647Z,34.08
2022-11-08T01:09:12.708Z,33.38
2022-11-08T01:11:40.132Z,34.97
2022-11-08T01:14:06.699Z,35.42
2022-11-08T01:16:34.257Z,35.00
2022-11-08T01:19:02.351Z,36.03
2022-11-08T01:21:29.478Z,36.00
2022-11-08T01:23:56.461Z,37.20
2022-11-08T01:26:27.969Z,37.55
2022-11-08T01:28:56.241Z,39.17
2022-11-08T01:31:28.732Z,40.75
2022-11-08T01:33:56.490Z,40.55
2022-11-08T01:36:25.948Z,42.17
2022-11-08T01:38:53.227Z,43.15
2022-11-08T01:41:21.773Z,44.67
2022-11-08T01:43:55.629Z,44.88
2022-11-08T01:46:35.880Z,46.15
2022-11-08T01:49:30.150Z,45.88
2022-11-08T01:52:14.685Z,48.00
2022-11-08T01:55:02.599Z,47.67
2022-11-08T01:57:53.248Z,48.25
2022-11-08T02:00:19.997Z,49.90
2022-11-08T02:02:51.622Z,50.15
2022-11-08T02:05:25.530Z,52.30
2022-11-08T02:08:01.278Z,49.58
2022-11-08T02:10:34.648Z,51.10
2022-11-08T02:13:04.933Z,51.65
2022-11-08T02:15:31.961Z,50.55
2022-11-08T02:17:58.588Z,50.88
2022-11-08T02:20:25.139Z,51.83
2022-11-08T02:23:12.069Z,52.33
2022-11-08T02:25:38.657Z,51.20
2022-11-08T02:28:05.206Z,51.45
2022-11-08T02:30:36.370Z,51.33
2022-11-08T02:33:16.320Z,50.17
2022-11-08T02:35:46.433Z,51.50
2022-11-08T02:38:12.913Z,49.30
2022-11-08T02:40:49.985Z,49.80
2022-11-08T02:43:16.671Z,51.63
2022-11-08T02:45:43.240Z,50.88
2022-11-08T02:48:10.059Z,51.00
2022-11-08T02:50:36.786Z,50.33
2022-11-08T02:53:03.554Z,48.92
2022-11-08T02:55:30.483Z,49.85
2022-11-08T02:57:57.250Z,52.63
2022-11-08T03:00:23.913Z,51.38
2022-11-08T03:02:54.566Z,51.72
2022-11-08T03:05:21.825Z,53.17
2022-11-08T03:07:48.618Z,51.80
2022-11-08T03:10:16.252Z,52.70
2022-11-08T03:12:43.098Z,53.30
2022-11-08T03:15:11.884Z,51.58
2022-11-08T03:17:38.739Z,52.65
2022-11-08T03:20:07.173Z,50.45
2022-11-08T03:22:33.726Z,50.78
2022-11-08T03:25:00.215Z,47.72
2022-11-08T03:27:27.105Z,45.95
2022-11-08T03:29:53.582Z,44.15
2022-11-08T03:32:20.061Z,45.10
2022-11-08T03:34:46.567Z,44.78
2022-11-08T03:37:13.061Z,47.92
2022-11-08T03:39:39.537Z,48.63
2022-11-08T03:42:06.432Z,49.80
2022-11-08T03:44:33.012Z,48.15
2022-11-08T03:47:00.329Z,50.05
2022-11-08T03:49:26.892Z,50.80
2022-11-08T03:51:54.642Z,51.35
2022-11-08T03:54:21.214Z,54.50
2022-11-08T03:56:47.958Z,51.95
2022-11-08T03:59:14.543Z,55.08
2022-11-08T04:01:41.281Z,49.83
2022-11-08T04:04:07.985Z,50.28
2022-11-08T04:06:34.517Z,50.28
2022-11-08T04:09:01.041Z,51.13
2022-11-08T04:11:46.006Z,53.17
2022-11-08T04:14:31.130Z,54.63
2022-11-08T04:16:57.660Z,60.90
2022-11-08T04:19:42.556Z,63.10
2022-11-08T04:22:11.642Z,60.70
2022-11-08T04:24:38.147Z,61.75
2022-11-08T04:27:04.647Z,64.45
2022-11-08T04:29:31.260Z,59.03
2022-11-08T04:31:57.770Z,56.70
2022-11-08T04:34:24.256Z,59.25
2022-11-08T04:36:50.737Z,57.80
2022-11-08T04:39:17.352Z,56.88
2022-11-08T04:41:43.866Z,50.75
2022-11-08T04:44:10.435Z,48.88
2022-11-08T04:46:36.932Z,47.33
2022-11-08T04:49:04.587Z,50.95
2022-11-08T04:51:32.861Z,52.10
2022-11-08T04:54:01.398Z,52.55
2022-11-08T04:56:29.846Z,53.63
2022-11-08T04:58:58.564Z,52.97
2022-11-08T05:01:28.063Z,53.42
2022-11-08T05:03:55.345Z,52.33
2022-11-08T05:06:24.598Z,56.78
2022-11-08T05:08:51.632Z,54.85
2022-11-08T05:11:22.461Z,59.10
2022-11-08T05:13:50.236Z,54.40
2022-11-08T05:16:22.387Z,52.45
2022-11-08T05:18:49.106Z,51.08
2022-11-08T05:21:36.057Z,50.83
2022-11-08T05:24:04.925Z,52.00
2022-11-08T05:26:34.964Z,52.88
2022-11-08T05:29:01.598Z,51.20
2022-11-08T05:31:28.353Z,50.78
2022-11-08T05:33:54.887Z,51.72
2022-11-08T05:36:21.593Z,55.13
2022-11-08T05:38:48.306Z,50.17
2022-11-08T05:41:20.596Z,56.13
2022-11-08T05:43:49.398Z,58.28
2022-11-08T05:46:17.484Z,56.45
2022-11-08T05:48:44.718Z,60.38
2022-11-08T05:51:12.210Z,65.05
2022-11-08T05:53:39.972Z,64.78
2022-11-08T05:56:06.878Z,73.85
2022-11-08T05:58:34.949Z,76.32
2022-11-08T06:01:01.873Z,79.85
2022-11-08T06:03:29.603Z,72.38
2022-11-08T06:06:00.966Z,70.75
2022-11-08T06:08:27.507Z,79.88
2022-11-08T06:10:54.013Z,78.15
2022-11-08T06:13:20.521Z,81.57
2022-11-08T06:15:46.984Z,92.68
2022-11-08T06:18:13.485Z,96.78
2022-11-08T06:20:40.046Z,98.80
2022-11-08T06:23:06.592Z,90.57
2022-11-08T06:25:33.396Z,99.45
2022-11-08T06:28:00.777Z,109.93
2022-11-08T06:30:27.253Z,118.85
2022-11-08T06:32:53.775Z,119.70
2022-11-08T06:35:20.277Z,124.28
2022-11-08T06:37:47.030Z,136.20
2022-11-08T06:40:13.971Z,158.25
2022-11-08T06:42:40.483Z,170.45
2022-11-08T06:45:07.419Z,166.18
2022-11-08T06:47:33.979Z,173.02
2022-11-08T06:50:00.494Z,178.27
2022-11-08T06:52:26.973Z,198.02
2022-11-08T06:54:53.625Z,194.75
2022-11-08T06:57:20.114Z,213.73
2022-11-08T06:59:46.685Z,229.02
2022-11-08T07:02:13.244Z,242.30
2022-11-08T07:04:40.207Z,278.20
2022-11-08T07:07:06.957Z,273.20
2022-11-08T07:09:33.856Z,261.40
2022-11-08T07:12:00.374Z,259.08
2022-11-08T07:14:26.911Z,269.60
2022-11-08T07:16:53.417Z,295.50
2022-11-08T07:19:19.909Z,298.17
2022-11-08T07:21:46.664Z,333.95
2022-11-08T07:24:13.189Z,348.55
2022-11-08T07:26:39.712Z,358.02
2022-11-08T07:29:06.244Z,333.02
2022-11-08T07:31:32.761Z,363.90
2022-11-08T07:33:59.284Z,381.00
2022-11-08T07:36:25.796Z,379.88
2022-11-08T07:38:52.472Z,403.08
2022-11-08T07:41:19.022Z,426.75
2022-11-08T07:43:45.505Z,444.70
2022-11-08T07:46:12.037Z,450.73
2022-11-08T07:48:38.604Z,463.80
2022-11-08T07:51:05.193Z,474.40
2022-11-08T07:53:31.730Z,489.08
2022-11-08T07:55:58.418Z,502.48
2022-11-08T07:58:25.490Z,511.90
2022-11-08T08:00:52.164Z,511.70
2022-11-08T08:03:19.079Z,505.67
2022-11-08T08:05:46.029Z,507.98
2022-11-08T08:08:13.515Z,509.38
2022-11-08T08:10:41.263Z,516.88
2022-11-08T08:13:07.872Z,519.47
2022-11-08T08:15:34.492Z,531.67
2022-11-08T08:18:02.833Z,537.53
2022-11-08T08:20:30.646Z,537.28
2022-11-08T08:22:57.898Z,535.97
2022-11-08T08:25:25.151Z,540.63
2022-11-08T08:27:56.812Z,537.10
2022-11-08T08:30:24.849Z,539.70
2022-11-08T08:33:21.940Z,536.63
2022-11-08T08:35:39.255Z,532.30
2022-11-08T08:38:06.988Z,523.97
2022-11-08T08:40:34.177Z,523.70
2022-11-08T08:43:03.187Z,507.73
2022-11-08T08:45:30.558Z,522.05
2022-11-08T08:47:59.642Z,520.80
2022-11-08T08:50:28.545Z,518.53
2022-11-08T08:52:59.848Z,511.85
2022-11-08T08:55:26.894Z,502.13
2022-11-08T08:57:54.019Z,506.42
2022-11-08T09:03:09.829Z,489.15
2022-11-08T09:05:37.522Z,480.15
2022-11-08T09:08:04.302Z,481.23
2022-11-08T09:10:30.936Z,436.35
2022-11-08T09:12:57.427Z,420.85
2022-11-08T09:15:24.072Z,399.83
2022-11-08T09:17:54.340Z,380.55
2022-11-08T09:20:21.241Z,353.52
2022-11-08T09:22:47.801Z,343.23
2022-11-08T09:25:15.554Z,346.83
2022-11-08T09:27:42.299Z,312.42
2022-11-08T09:30:09.586Z,272.70
2022-11-08T09:32:59.050Z,299.13
2022-11-08T09:35:23.305Z,280.67
2022-11-08T09:37:50.176Z,265.13
2022-11-08T09:40:51.065Z,264.67
2022-11-08T09:44:04.321Z,268.83
2022-11-08T09:46:53.595Z,264.58
2022-11-08T09:49:42.925Z,277.15
2022-11-08T09:52:16.209Z,306.02
2022-11-08T09:54:46.610Z,343.63
2022-11-08T09:57:43.842Z,321.30
2022-11-08T10:00:12.887Z,325.52
2022-11-08T10:02:39.582Z,308.25
2022-11-08T10:05:12.825Z,301.98
2022-11-08T10:08:02.463Z,276.02
2022-11-08T10:10:40.722Z,311.05
2022-11-08T10:13:37.596Z,349.20
2022-11-08T10:16:06.992Z,356.95
2022-11-08T10:18:40.369Z,361.75
2022-11-08T10:21:39.232Z,372.80
2022-11-08T10:24:23.162Z,343.33
2022-11-08T10:26:52.164Z,336.77
2022-11-08T10:29:28.398Z,297.33
2022-11-08T10:32:05.579Z,312.90
2022-11-08T10:34:41.295Z,297.30
2022-11-08T10:37:13.465Z,250.63
2022-11-08T10:39:48.095Z,226.43
2022-11-08T10:44:59.693Z,176.18
2022-11-08T10:47:29.393Z,228.88
2022-11-08T10:50:00.906Z,332.70
2022-11-08T10:53:02.372Z,354.45
2022-11-08T10:55:33.445Z,398.02
2022-11-08T10:58:01.250Z,439.58
2022-11-08T11:00:30.609Z,325.90
2022-11-08T11:03:06.101Z,404.67
2022-11-08T11:05:38.182Z,177.68
2022-11-08T11:08:14.895Z,124.63
2022-11-08T11:10:47.591Z,76.22
2022-11-08T11:18:37.148Z,52.15
2022-11-08T11:21:21.932Z,48.60
2022-11-08T11:23:51.954Z,82.80
2022-11-08T11:26:30.232Z,60.83
2022-11-08T11:29:05.989Z,58.40
2022-11-08T11:31:36.488Z,55.75
2022-11-08T11:34:18.184Z,69.25
2022-11-08T11:37:10.777Z,75.57
2022-11-08T11:39:57.601Z,63.85
2022-11-08T11:42:44.517Z,77.47
2022-11-08T11:45:34.758Z,60.28
2022-11-08T11:48:05.105Z,96.55
2022-11-08T11:50:37.271Z,105.63
2022-11-08T11:53:22.818Z,74.30
2022-11-08T11:56:01.566Z,48.92
2022-11-08T11:58:40.209Z,71.47
2022-11-08T12:01:40.658Z,33.38
2022-11-08T12:04:40.957Z,36.15
2022-11-08T12:07:29.419Z,30.08
2022-11-08T12:10:11.086Z,29.50
2022-11-08T12:12:59.036Z,29.17
2022-11-08T12:16:00.745Z,36.33
2022-11-08T12:18:42.140Z,36.17
2022-11-08T12:21:33.329Z,34.20
2022-11-08T12:24:44.730Z,29.33
2022-11-08T12:27:30.422Z,28.92
2022-11-08T12:30:16.186Z,23.75
2022-11-08T12:33:08.556Z,23.67
2022-11-08T12:36:01.265Z,25.17
2022-11-08T12:38:54.941Z,24.90
2022-11-08T12:42:00.105Z,24.90
2022-11-08T12:45:07.814Z,26.45
2022-11-08T12:47:56.025Z,25.88
2022-11-08T12:50:50.000Z,26.02
2022-11-08T12:53:40.301Z,25.30
2022-11-08T12:56:15.437Z,25.27
2022-11-08T12:58:46.989Z,25.40
2022-11-08T13:01:15.942Z,24.55
2022-11-08T13:03:42.857Z,25.20
2022-11-08T13:06:37.180Z,26.00
2022-11-08T13:09:47.675Z,23.40
2022-11-08T13:12:32.714Z,25.25
2022-11-08T13:15:00.833Z,25.05
2022-11-08T13:17:28.665Z,24.73
2022-11-08T13:20:06.381Z,25.55
2022-11-08T13:22:32.842Z,24.17
2022-11-08T13:25:00.606Z,25.30
2022-11-08T13:27:44.213Z,27.38
2022-11-08T13:30:16.789Z,26.00
2022-11-08T13:32:43.265Z,25.15
2022-11-08T13:35:15.835Z,32.97
2022-11-08T13:37:54.216Z,27.13
2022-11-08T13:40:29.786Z,26.05
2022-11-08T13:43:18.529Z,25.70
2022-11-08T13:45:45.745Z,28.73
2022-11-08T13:48:36.128Z,26.15
2022-11-08T13:51:23.082Z,26.88
2022-11-08T13:54:01.302Z,28.38
2022-11-08T13:56:43.098Z,26.23
2022-11-08T13:59:31.560Z,28.30
2022-11-08T14:01:58.433Z,29.17
2022-11-08T14:04:32.958Z,30.08
2022-11-08T14:07:05.481Z,31.05
2022-11-08T14:10:13.800Z,28.10
2022-11-08T14:12:46.473Z,28.20
2022-11-08T14:15:24.873Z,24.70
2022-11-08T14:18:23.369Z,28.52
2022-11-08T14:20:50.425Z,25.92
2022-11-08T14:23:20.369Z,26.50
2022-11-08T14:26:11.575Z,25.80
2022-11-08T14:28:41.045Z,23.90
2022-11-08T14:31:24.281Z,25.80
2022-11-08T14:33:50.932Z,25.25
2022-11-08T14:36:19.681Z,24.15
2022-11-08T14:38:49.207Z,24.92
2022-11-08T14:41:29.569Z,26.65
2022-11-08T14:43:59.278Z,26.90
2022-11-08T14:46:31.518Z,28.30
2022-11-08T14:49:07.491Z,30.52
2022-11-08T14:51:34.457Z,33.10
2022-11-08T14:54:01.421Z,34.15
2022-11-08T14:56:36.810Z,34.35
2022-11-08T14:59:06.914Z,36.03
2022-11-08T15:01:34.985Z,38.35
2022-11-08T15:04:14.505Z,38.00
2022-11-08T15:06:50.133Z,36.58
2022-11-08T15:09:43.192Z,37.58
2022-11-08T15:12:17.335Z,38.42
2022-11-08T15:15:02.233Z,40.25
2022-11-08T15:17:39.747Z,42.80
2022-11-08T15:20:20.187Z,45.00
2022-11-08T15:22:48.461Z,47.15
2022-11-08T15:25:28.466Z,56.03
2022-11-08T15:27:57.711Z,70.63
2022-11-08T15:30:30.238Z,91.88
2022-11-08T15:32:56.933Z,100.40
2022-11-08T15:35:31.876Z,97.53
2022-11-08T15:38:21.335Z,86.88
2022-11-08T15:40:52.776Z,72.10
2022-11-08T15:43:45.314Z,54.05
2022-11-08T15:46:38.210Z,47.90
2022-11-08T15:49:36.710Z,40.95
2022-11-08T15:52:04.254Z,40.50
2022-11-08T15:54:30.745Z,43.97
2022-11-08T15:56:57.386Z,47.50
2022-11-08T15:59:28.549Z,54.05
2022-11-08T16:01:58.598Z,56.90
2022-11-08T16:04:26.919Z,64.90
2022-11-08T16:06:55.571Z,74.03
2022-11-08T16:09:22.130Z,84.65
2022-11-08T16:11:49.713Z,105.70
2022-11-08T16:14:19.993Z,117.15
2022-11-08T16:16:46.928Z,127.13
2022-11-08T16:19:23.601Z,138.80
2022-11-08T16:21:51.614Z,149.48
2022-11-08T16:24:18.385Z,152.25
2022-11-08T16:26:45.923Z,155.10
2022-11-08T16:29:24.289Z,162.35
2022-11-08T16:31:51.391Z,161.07
2022-11-08T16:34:18.354Z,158.98
2022-11-08T16:36:46.489Z,160.27
2022-11-08T16:39:18.368Z,155.10
2022-11-08T16:41:45.413Z,150.00
2022-11-08T16:44:12.204Z,136.38
2022-11-08T16:46:39.329Z,134.45
2022-11-08T16:49:07.230Z,126.28
2022-11-08T16:51:34.074Z,124.85
2022-11-08T16:54:02.745Z,121.30
2022-11-08T16:56:29.360Z,115.63
2022-11-08T16:58:55.890Z,113.28
2022-11-08T17:01:32.433Z,103.45
2022-11-08T17:03:58.953Z,90.28
2022-11-08T17:06:25.696Z,87.15
2022-11-08T17:08:52.310Z,79.32
2022-11-08T17:11:21.567Z,77.28
2022-11-08T17:13:48.672Z,71.15
2022-11-08T17:16:15.946Z,65.80
2022-11-08T17:18:42.811Z,65.38
2022-11-08T17:21:38.237Z,64.40
2022-11-08T17:23:58.745Z,58.88
2022-11-08T17:26:25.311Z,60.10
2022-11-08T17:28:56.232Z,54.17
2022-11-08T17:31:22.804Z,55.88
2022-11-08T17:33:50.553Z,54.47
2022-11-08T17:36:17.106Z,56.63
2022-11-08T17:38:43.651Z,54.75
2022-11-08T17:41:15.035Z,51.83
2022-11-08T17:43:42.625Z,53.92
2022-11-08T17:46:10.770Z,53.67
2022-11-08T17:48:39.446Z,53.63
2022-11-08T17:51:06.185Z,53.38
2022-11-08T17:53:33.762Z,56.70
2022-11-08T17:56:02.001Z,53.03
2022-11-08T17:58:29.084Z,56.45
2022-11-08T18:00:58.024Z,58.75
2022-11-08T18:03:26.072Z,57.10
2022-11-08T18:06:16.478Z,57.65
2022-11-08T18:08:43.373Z,59.60
2022-11-08T18:11:09.938Z,58.45
2022-11-08T18:13:36.488Z,60.85
2022-11-08T18:16:08.763Z,58.85
2022-11-08T18:18:36.769Z,61.03
2022-11-08T18:21:03.733Z,60.63
2022-11-08T18:23:30.208Z,57.95
2022-11-08T18:25:56.720Z,58.75
2022-11-08T18:28:24.258Z,63.00
2022-11-08T18:30:51.103Z,60.63
2022-11-08T18:33:20.179Z,58.45
2022-11-08T18:35:47.103Z,62.97
2022-11-08T18:38:14.039Z,63.28
2022-11-08T18:40:44.645Z,68.35
2022-11-08T18:43:11.421Z,61.40
2022-11-08T18:45:38.047Z,60.05
2022-11-08T18:48:04.706Z,64.15
2022-11-08T18:50:31.297Z,62.90
2022-11-08T18:53:03.098Z,59.42
2022-11-08T18:55:31.399Z,65.05
2022-11-08T18:57:57.888Z,64.18
2022-11-08T19:00:24.561Z,62.33
2022-11-08T19:02:51.128Z,64.57
2022-11-08T19:05:17.853Z,65.75
2022-11-08T19:07:44.354Z,64.22
2022-11-08T19:10:10.936Z,64.20
2022-11-08T19:12:37.457Z,64.07
2022-11-08T19:15:04.206Z,69.55
2022-11-08T19:17:31.896Z,70.63
2022-11-08T19:19:58.403Z,68.75
2022-11-08T19:22:24.956Z,72.90
2022-11-08T19:24:51.426Z,73.10
2022-11-08T19:27:18.006Z,78.25
2022-11-08T19:29:44.484Z,85.68
2022-11-08T19:32:10.956Z,78.10
2022-11-08T19:34:37.645Z,80.32
2022-11-08T19:37:04.272Z,83.82
2022-11-08T19:39:30.863Z,89.88
2022-11-08T19:41:58.717Z,88.90
2022-11-08T19:44:25.614Z,84.30
2022-11-08T19:46:52.123Z,91.25
2022-11-08T19:49:19.721Z,89.07
2022-11-08T19:51:46.198Z,91.55
2022-11-08T19:54:14.597Z,93.28
2022-11-08T19:57:04.002Z,97.60
2022-11-08T19:59:27.576Z,87.57
2022-11-08T20:01:54.160Z,100.90
2022-11-08T20:04:20.996Z,104.78
2022-11-08T20:06:47.746Z,103.28
2022-11-08T20:09:14.324Z,98.30
2022-11-08T20:11:42.300Z,103.85
2022-11-08T20:14:11.649Z,101.90
2022-11-08T20:16:41.835Z,106.15
2022-11-08T20:19:13.922Z,103.45
2022-11-08T20:21:42.280Z,100.43
2022-11-08T20:24:10.440Z,108.05
2022-11-08T20:26:38.492Z,109.10
2022-11-08T20:29:07.326Z,104.70
2022-11-08T20:31:34.099Z,108.35
2022-11-08T20:34:01.676Z,112.80
2022-11-08T20:36:33.146Z,109.30
2022-11-08T20:39:05.622Z,110.80
2022-11-08T20:41:35.696Z,124.03
2022-11-08T20:44:02.634Z,123.13
2022-11-08T20:46:29.705Z,126.22
2022-11-08T20:49:00.361Z,125.72
2022-11-08T20:51:27.769Z,124.65
2022-11-08T20:53:55.970Z,124.05
2022-11-08T20:56:23.548Z,125.68
2022-11-08T20:58:51.308Z,129.63
2022-11-08T21:01:21.108Z,141.40
2022-11-08T21:03:48.341Z,135.80
2022-11-08T21:06:17.963Z,141.30
2022-11-08T21:09:07.486Z,152.70
2022-11-08T21:11:34.487Z,157.35
2022-11-08T21:14:01.827Z,171.77
2022-11-08T21:16:31.956Z,183.23
2022-11-08T21:19:01.994Z,176.43
2022-11-08T21:21:29.708Z,178.90
2022-11-08T21:23:56.610Z,186.52
2022-11-08T21:26:23.621Z,188.25
2022-11-08T21:28:51.009Z,187.75
2022-11-08T21:31:17.987Z,197.85
2022-11-08T21:33:44.546Z,199.63
2022-11-08T21:36:11.296Z,207.10
2022-11-08T21:38:39.678Z,205.52
2022-11-08T21:41:09.304Z,209.05
2022-11-08T21:43:37.357Z,204.57
2022-11-08T21:46:21.414Z,210.57
2022-11-08T21:48:53.390Z,206.60
2022-11-08T21:51:20.191Z,207.63
2022-11-08T21:53:53.911Z,202.95
2022-11-08T21:56:24.854Z,199.85
2022-11-08T21:58:53.011Z,196.43
2022-11-08T22:01:22.159Z,191.57
2022-11-08T22:03:50.838Z,202.30
2022-11-08T22:06:17.424Z,190.65
2022-11-08T22:08:43.970Z,199.35
2022-11-08T22:11:10.541Z,189.75
2022-11-08T22:13:37.117Z,187.68
2022-11-08T22:16:03.878Z,186.00
2022-11-08T22:18:58.225Z,198.85
2022-11-08T22:21:35.562Z,197.60
2022-11-08T22:24:02.295Z,201.43
2022-11-08T22:26:28.825Z,220.30
2022-11-08T22:28:55.370Z,213.27
2022-11-08T22:31:21.925Z,219.93
2022-11-08T22:33:48.730Z,216.13
2022-11-08T22:36:16.491Z,211.63
2022-11-08T22:38:43.053Z,218.77
2022-11-08T22:41:09.657Z,224.65
2022-11-08T22:43:36.343Z,224.32
2022-11-08T22:46:03.433Z,229.23
2022-11-08T22:48:30.005Z,223.95
2022-11-08T22:50:57.451Z,239.55
2022-11-08T22:53:24.134Z,236.85
2022-11-08T22:55:50.718Z,235.15
2022-11-08T22:58:17.590Z,241.13
2022-11-08T23:00:44.129Z,233.65
2022-11-08T23:03:11.109Z,238.90
2022-11-08T23:05:37.666Z,242.25
2022-11-08T23:08:04.443Z,253.30
2022-11-08T23:10:31.032Z,254.35
2022-11-08T23:13:16.315Z,260.60
2022-11-08T23:16:01.273Z,266.40
2022-11-08T23:18:27.865Z,256.10
2022-11-08T23:21:13.496Z,264.33
2022-11-08T23:23:58.777Z,264.63
2022-11-08T23:26:45.970Z,266.02
2022-11-08T23:29:30.787Z,264.30
2022-11-08T23:31:57.604Z,274.30
2022-11-08T23:34:24.184Z,263.27
2022-11-08T23:36:50.730Z,271.70
2022-11-08T23:39:17.342Z,272.10
2022-11-08T23:42:02.305Z,275.40
2022-11-08T23:46:56.417Z,255.30
2022-11-08T23:49:22.969Z,270.42
2022-11-08T23:51:50.043Z,282.10
2022-11-08T23:54:16.931Z,282.25
2022-11-08T23:56:44.229Z,291.50
2022-11-08T23:59:11.800Z,286.90
